ADDS METAR Data INFO
IDs: Format: Raw Decoded Include TAF

Data at: 1332 UTC 19 Jul 2018

KOXR 191251Z AUTO 00000KT 10SM OVC008 18/17 A2996 RMK AO2 SLP144 T01830172
KOXR 191151Z AUTO 27004KT 10SM OVC008 18/17 A2995 RMK AO2 SLP140 T01830172 10200 20183 55002
KOXR 191115Z AUTO 28004KT 10SM BKN009 18/17 A2995 RMK AO2 T01830172
KOXR 191106Z AUTO 28004KT 10SM SCT009 18/17 A2995 RMK AO2 T01830172
KOXR 191051Z AUTO 28003KT 10SM CLR 18/17 A2995 RMK AO2 SLP139 T01830172
KOXR 190951Z AUTO 28004KT 10SM CLR 18/17 A2994 RMK AO2 SLP138 T01830172
KOXR 190851Z AUTO 28003KT 10SM CLR 19/17 A2996 RMK AO2 SLP143 T01890172 58008
KOXR 190751Z AUTO 30003KT 10SM CLR 19/17 A2996 RMK AO2 SLP146 T01940167 402280178
KOXR 190651Z AUTO 00000KT 10SM CLR 19/17 A2998 RMK AO2 SLP150 T01940167
KOXR 190551Z AUTO 00000KT 10SM CLR 19/17 A2998 RMK AO2 SLP151 T01940167 10228 20194 53011
KOXR 190451Z AUTO 32004KT 10SM CLR 19/17 A2997 RMK AO2 SLP147 T01940167
KOXR 190351Z AUTO 28007KT 10SM CLR 19/17 A2995 RMK AO2 SLP142 T01940167
KOXR 190251Z 29009KT 10SM SCT008 20/17 A2995 RMK AO2 SLP140 T02000167 53003
KOXR 190249Z 29008KT 10SM SCT008 20/17 A2995 RMK AO2
KOXR 190151Z 28010KT 10SM BKN008 21/17 A2994 RMK AO2 SLP137 T02060172
KOXR 190120Z 25008KT 10SM BKN008 21/17 A2994 RMK AO2 T02060172
KOXR 190051Z 27010KT 10SM SCT008 21/17 A2994 RMK AO2 SLP137 T02110172
KOXR 182351Z 28010KT 10SM SCT010 23/18 A2994 RMK AO2 SLP138 T02280178 10228 20200 58017
KOXR 182251Z 25009KT 10SM FEW011 22/18 A2996 RMK AO2 SLP145 T02220178
KOXR 182243Z 25009KT 10SM SCT011 22/18 A2996 RMK AO2 T02220178
KOXR 182151Z 27009KT 9SM OVC010 23/18 A2997 RMK AO2 SLP149 T02280178
KOXR 182113Z 26008KT 10SM BKN011 21/18 A2999 RMK AO2 T02110178
KOXR 182059Z 27009KT 10SM SCT011 22/18 A2999 RMK AO2 T02170178
KOXR 182051Z 26009KT 10SM BKN011 22/18 A2999 RMK AO2 SLP154 T02170178 58008
KOXR 182027Z VRB06KT 10SM OVC010 22/18 A3001 RMK AO2 T02170178
KOXR 182015Z 28007KT 9SM OVC009 21/17 A3002 RMK AO2 LTG DSNT S AND SW T02110172
KOXR 181958Z 29011KT 9SM OVC010 22/18 A3001 RMK AO2 LTG DSNT SE-SW T02170178
KOXR 181951Z 28010KT 10SM OVC009 21/18 A3001 RMK AO2 LTG DSNT SE-SW SLP163 T02110178
KOXR 181851Z 25008KT 10SM OVC009 20/17 A3002 RMK AO2 LTG DSNT E AND SE SLP166 T02000172
KOXR 181813Z 24007KT 10SM BKN013 21/18 A3002 RMK AO2 T02110178
KOXR 181751Z 25004KT 10SM FEW011 21/18 A3001 RMK AO2 SLP162 T02060178 10211 20189 53010
KOXR 181651Z 29007KT 10SM SCT009 21/18 A2998 RMK AO2 SLP150 T02060178
KOXR 181617Z 29008KT 9SM FEW009 20/17 A2998 RMK AO2 T02000172
KOXR 181551Z 26005KT 8SM FEW010 21/18 A2998 RMK AO2 SLP151 T02060178
KOXR 181546Z 28006KT 8SM SCT010 21/18 A2998 RMK AO2
KOXR 181538Z 27004KT 9SM BKN010 21/18 A2999 RMK AO2 T02060178
KOXR 181451Z 36004KT 7SM OVC008 20/17 A3000 RMK AO2 SLP156 T02000172 50003
KOXR 181351Z AUTO 00000KT 6SM BR OVC007 19/17 A3002 RMK AO2 SLP164 T01890172
KOXR 181251Z AUTO 00000KT 7SM OVC008 19/17 A3001 RMK AO2 SLP161 T01890172
KOXR 181151Z AUTO 00000KT 10SM OVC009 19/17 A2999 RMK AO2 SLP153 T01890167 10189 20178 53006
KOXR 181051Z AUTO 00000KT 10SM OVC009 18/17 A2997 RMK AO2 SLP147 T01830167
KOXR 181004Z AUTO 00000KT 10SM OVC009 18/16 A2997 RMK AO2 T01830161
KOXR 180951Z AUTO 29004KT 10SM OVC010 18/16 A2997 RMK AO2 SLP146 T01830161
KOXR 180942Z AUTO 00000KT 10SM BKN010 18/16 A2997 RMK AO2 T01830161
KOXR 180851Z AUTO 29004KT 10SM CLR 18/16 A2997 RMK AO2 SLP147 T01780161 58004
KOXR 180751Z AUTO 29004KT 9SM CLR 18/16 A2997 RMK AO2 SLP149 T01830161 402220178
KOXR 180709Z AUTO 30005KT 10SM SCT009 18/16 A2998 RMK AO2 T01830156
KOXR 180651Z AUTO 28005KT 10SM OVC009 18/16 A2998 RMK AO2 SLP153 T01830161
KOXR 180551Z AUTO 28005KT 10SM BKN009 18/16 A2998 RMK AO2 SLP152 T01830161 10217 20183 53016
KOXR 180451Z AUTO 27006KT 10SM OVC009 18/16 A2997 RMK AO2 SLP146 T01830161
KOXR 180434Z AUTO 28009KT 10SM OVC009 18/16 A2995 RMK AO2 T01830161
KOXR 180351Z AUTO 28011KT 10SM OVC011 19/16 A2994 RMK AO2 SLP138 T01890161
KOXR 180340Z 28010KT 10SM BKN010 19/16 A2994 RMK AO2 T01890161
KOXR 180251Z 27012KT 10SM FEW009 19/16 A2993 RMK AO2 SLP135 T01890161 55003
KOXR 180238Z 27012KT 10SM FEW009 19/16 A2993 RMK AO2 T01940161
KOXR 180151Z 27013KT 10SM CLR 21/17 A2992 RMK AO2 SLP132 T02060167